Terminal Aerodrome Forecast
Issued by NWS Corpus Christi, TX

Home | Current Version | Previous Version | Text Only | Print | Product List | Glossary On
Versions: 1 2 3 4 5 6 7 8 9 10 11 12
000
FTUS44 KCRP 060530
TAFCRP
TAF
KCRP 060530Z 0606/0706 08006KT P6SM BKN050
     FM060800 VRB04KT 6SM BR VCSH SCT015 BKN035
     FM061500 33018G28KT P6SM SCT050
     FM070000 02010KT P6SM SKC=

USA.gov is the U.S. government's official web portal to all federal, state and local government web resources and services.